Time;durP1;ratioP1;P1;durP2;ratioP2;P2;SDS_P1;SDS_P2;PMS_P1;PMS_P2;Temp;Humidity;BMP_temperature;BMP_pressure;BME280_temperature;BME280_humidity;BME280_pressure;Samples;Min_cycle;Max_cycle;Signal;HPM_P1;HPM_P2
2022/11/19 00:00:41;;;;;;;3.17;1.38;;;6.40;99.90;;;;;;4970288;28;20296;-88
2022/11/19 00:03:08;;;;;;;1.20;1.10;;;6.40;99.90;;;;;;4955612;28;20287;-89
2022/11/19 00:05:41;;;;;;;2.03;1.30;;;6.50;99.90;;;;;;4969358;28;20319;-89
2022/11/19 00:08:09;;;;;;;2.65;1.13;;;6.50;99.90;;;;;;4964039;28;20598;-88
2022/11/19 00:10:36;;;;;;;1.48;1.15;;;6.40;99.90;;;;;;4969892;28;20299;-89
2022/11/19 00:13:03;;;;;;;2.53;1.40;;;6.40;99.90;;;;;;4967880;28;20212;-88
2022/11/19 00:15:31;;;;;;;2.03;1.40;;;6.40;99.90;;;;;;4966312;28;20217;-89
2022/11/19 00:20:55;;;;;;;3.72;1.40;;;6.40;99.90;;;;;;5104047;27;20575;-90
2022/11/19 00:23:22;;;;;;;1.27;1.13;;;6.30;99.90;;;;;;5096668;28;20208;-90
2022/11/19 00:25:49;;;;;;;1.38;1.20;;;6.30;99.90;;;;;;5106173;28;20208;-90
2022/11/19 00:28:16;;;;;;;2.72;1.58;;;6.40;99.90;;;;;;5102310;28;20200;-90
2022/11/19 00:30:43;;;;;;;2.10;1.40;;;6.50;99.90;;;;;;5109122;27;20209;-91
2022/11/19 00:33:13;;;;;;;2.65;1.60;;;6.50;99.90;;;;;;5104431;28;20283;-90
2022/11/19 00:35:40;;;;;;;1.73;1.45;;;6.40;99.90;;;;;;5110798;28;20195;-90
2022/11/19 00:38:09;;;;;;;2.53;1.67;;;6.30;99.90;;;;;;5106249;27;20568;-90
2022/11/19 00:40:36;;;;;;;2.85;1.85;;;6.30;99.90;;;;;;5107299;28;20223;-90
2022/11/19 00:45:47;;;;;;;3.63;2.20;;;6.00;99.90;;;;;;5109587;28;20219;-90
2022/11/19 00:48:15;;;;;;;2.88;1.83;;;5.90;99.90;;;;;;5108656;27;20557;-91
2022/11/19 00:50:42;;;;;;;3.60;2.13;;;5.90;99.90;;;;;;5108082;28;20615;-90
2022/11/19 00:53:11;;;;;;;4.10;2.20;;;5.90;99.90;;;;;;5102037;28;20216;-90
2022/11/19 00:55:38;;;;;;;2.72;1.92;;;5.90;99.90;;;;;;5091405;28;20331;-90
2022/11/19 00:58:05;;;;;;;2.70;1.80;;;6.00;99.90;;;;;;5089666;28;20204;-90
2022/11/19 01:00:32;;;;;;;4.95;2.28;;;6.00;99.90;;;;;;5084431;28;20501;-90
2022/11/19 01:02:59;;;;;;;3.47;1.80;;;6.10;99.90;;;;;;5082155;28;20192;-90
2022/11/19 01:05:26;;;;;;;3.30;1.60;;;6.10;99.90;;;;;;5082790;28;20193;-89
2022/11/19 01:07:55;;;;;;;4.85;1.90;;;6.10;99.90;;;;;;5087864;28;20284;-90
2022/11/19 01:10:23;;;;;;;2.20;1.83;;;6.20;99.90;;;;;;5087805;28;20205;-90
2022/11/19 01:15:34;;;;;;;1.73;1.60;;;6.30;99.90;;;;;;5092290;28;20272;-90
2022/11/19 01:18:01;;;;;;;4.55;2.20;;;6.30;99.90;;;;;;5091276;28;20207;-91
2022/11/19 01:20:28;;;;;;;2.90;2.10;;;6.30;99.90;;;;;;5089264;28;20667;-90
2022/11/19 01:22:55;;;;;;;3.50;2.20;;;6.40;99.90;;;;;;5089638;28;20200;-90
2022/11/19 01:25:24;;;;;;;2.63;2.13;;;6.40;99.90;;;;;;5089406;28;20292;-90
2022/11/19 01:27:51;;;;;;;2.30;1.98;;;6.40;99.90;;;;;;5094584;28;20204;-90
2022/11/19 01:30:19;;;;;;;3.15;1.95;;;6.40;99.90;;;;;;5083521;28;20292;-90
2022/11/19 01:32:46;;;;;;;2.83;2.17;;;6.40;99.90;;;;;;5070097;28;20276;-90
2022/11/19 01:35:13;;;;;;;3.17;1.98;;;6.50;99.90;;;;;;5071727;28;20368;-90
2022/11/19 01:37:40;;;;;;;4.63;2.15;;;6.50;99.90;;;;;;5070027;28;20267;-90
2022/11/19 01:40:08;;;;;;;2.78;2.00;;;6.50;99.80;;;;;;5074943;28;20267;-90
2022/11/19 01:42:52;;;;;;;4.97;2.15;;;6.60;99.90;;;;;;5070127;28;20284;-90
2022/11/19 01:45:27;;;;;;;3.28;2.03;;;6.60;99.70;;;;;;5076307;28;20862;-90
2022/11/19 01:47:57;;;;;;;3.75;2.03;;;6.70;99.40;;;;;;5076942;28;20207;-90
2022/11/19 01:50:25;;;;;;;3.47;2.08;;;6.70;99.40;;;;;;5080631;28;20199;-90
2022/11/19 01:52:52;;;;;;;4.90;2.25;;;6.70;99.30;;;;;;5074156;28;20212;-90
2022/11/19 01:55:20;;;;;;;5.88;2.20;;;6.70;99.10;;;;;;5075582;28;20292;-90
2022/11/19 01:57:53;;;;;;;3.03;2.30;;;6.70;99.10;;;;;;5074590;28;20206;-90
2022/11/19 02:00:21;;;;;;;2.50;2.13;;;6.70;99.20;;;;;;5078667;28;20243;-90
2022/11/19 02:02:48;;;;;;;2.67;2.20;;;6.70;99.30;;;;;;5080299;28;20218;-90
2022/11/19 02:05:15;;;;;;;3.92;2.03;;;6.60;99.70;;;;;;5075448;28;20201;-91
2022/11/19 02:07:49;;;;;;;3.22;2.13;;;6.70;99.40;;;;;;5060865;28;20194;-90
2022/11/19 02:10:16;;;;;;;5.63;2.20;;;6.70;99.40;;;;;;5066342;28;20765;-90
2022/11/19 02:12:58;;;;;;;2.33;1.88;;;6.70;99.30;;;;;;5084414;28;20204;-90
2022/11/19 02:15:36;;;;;;;5.10;2.03;;;6.70;99.40;;;;;;5070829;28;20205;-90
2022/11/19 02:18:18;;;;;;;3.75;1.80;;;6.70;98.90;;;;;;5071844;28;20661;-90
2022/11/19 02:21:01;;;;;;;2.28;2.00;;;6.70;98.90;;;;;;5072612;28;20342;-89
2022/11/19 02:24:00;;;;;;;2.80;2.10;;;6.70;99.20;;;;;;5065663;28;20661;-90
2022/11/19 02:26:44;;;;;;;4.97;2.08;;;6.60;99.20;;;;;;5073400;28;20209;-90
2022/11/19 02:29:41;;;;;;;2.70;1.90;;;6.60;99.00;;;;;;5072170;28;20237;-90
2022/11/19 02:32:13;;;;;;;3.25;2.20;;;6.70;99.00;;;;;;5059516;28;20677;-90
2022/11/19 02:34:46;;;;;;;2.50;1.75;;;6.60;98.70;;;;;;5068965;28;20225;-90
2022/11/19 02:37:17;;;;;;;3.03;1.90;;;6.60;98.60;;;;;;5067233;28;20651;-91
2022/11/19 02:39:52;;;;;;;2.72;2.05;;;6.60;98.90;;;;;;5061701;28;20268;-90
2022/11/19 02:42:31;;;;;;;3.75;1.92;;;6.60;99.20;;;;;;5066900;28;20298;-90
2022/11/19 02:45:28;;;;;;;2.95;1.77;;;6.60;99.50;;;;;;5066317;28;20258;-90
2022/11/19 02:48:06;;;;;;;5.10;2.00;;;6.60;99.50;;;;;;5068274;28;20194;-90
2022/11/19 02:50:36;;;;;;;2.28;1.80;;;6.60;99.30;;;;;;5069840;28;20205;-90
2022/11/19 02:53:04;;;;;;;5.32;2.00;;;6.50;99.00;;;;;;5069333;28;20229;-90
2022/11/19 02:55:32;;;;;;;4.32;2.20;;;6.50;99.00;;;;;;5065903;28;20224;-90
2022/11/19 02:58:04;;;;;;;3.75;1.80;;;6.50;99.20;;;;;;5066060;28;20193;-90
2022/11/19 03:06:23;;;;;;;3.85;1.80;;;6.60;99.10;;;;;;5068516;28;20262;-90
2022/11/19 03:08:50;;;;;;;3.58;2.03;;;6.60;98.70;;;;;;5068830;28;20280;-91
2022/11/19 03:11:21;;;;;;;3.90;1.80;;;6.70;98.10;;;;;;5069306;28;20247;-90
2022/11/19 03:16:43;;;;;;;1.88;1.52;;;6.80;97.70;;;;;;5066000;28;20687;-90
2022/11/19 03:19:30;;;;;;;3.38;1.70;;;6.70;97.60;;;;;;5068941;28;20228;-90
2022/11/19 03:22:00;;;;;;;3.35;1.52;;;6.70;97.80;;;;;;5064291;28;20281;-90
2022/11/19 03:24:33;;;;;;;4.00;1.63;;;6.70;97.60;;;;;;5068238;28;20206;-90
2022/11/19 03:27:08;;;;;;;2.35;1.50;;;6.70;97.90;;;;;;5072952;28;20329;-90
2022/11/19 03:29:38;;;;;;;2.28;1.50;;;6.60;98.10;;;;;;5068045;28;20201;-90
2022/11/19 03:32:11;;;;;;;3.58;1.30;;;6.50;98.40;;;;;;5070628;28;20293;-90
2022/11/19 03:34:39;;;;;;;3.90;1.70;;;6.50;98.10;;;;;;5069512;28;20665;-90
2022/11/19 03:37:08;;;;;;;3.30;1.48;;;6.50;98.40;;;;;;5067698;28;20193;-90
2022/11/19 03:39:37;;;;;;;3.40;1.30;;;6.50;98.50;;;;;;5069590;28;20220;-91
2022/11/19 03:42:09;;;;;;;4.13;1.60;;;6.50;98.00;;;;;;5067287;28;20285;-90
2022/11/19 03:44:39;;;;;;;2.58;1.73;;;6.60;97.40;;;;;;5067689;28;20193;-90
2022/11/19 03:47:12;;;;;;;1.92;1.52;;;6.60;97.40;;;;;;5068114;28;20221;-90
2022/11/19 03:49:48;;;;;;;1.88;1.30;;;6.70;97.30;;;;;;5071398;28;20206;-90
2022/11/19 03:52:17;;;;;;;1.58;1.35;;;6.60;96.90;;;;;;5069860;28;20292;-91
2022/11/19 03:54:44;;;;;;;1.50;1.20;;;6.70;96.90;;;;;;5065115;28;20768;-90
2022/11/19 03:57:16;;;;;;;1.25;1.13;;;6.70;96.80;;;;;;5068844;28;20271;-90
2022/11/19 03:59:44;;;;;;;6.05;1.30;;;6.70;97.00;;;;;;5059809;28;20260;-90
2022/11/19 04:02:13;;;;;;;1.20;1.10;;;6.60;97.20;;;;;;5069024;28;20720;-90
2022/11/19 04:04:40;;;;;;;1.42;1.30;;;6.60;97.20;;;;;;5065368;28;20685;-90
2022/11/19 04:07:10;;;;;;;2.08;1.40;;;6.60;97.10;;;;;;5056272;28;20198;-91
2022/11/19 04:09:37;;;;;;;2.28;1.20;;;6.70;97.00;;;;;;5069438;28;20219;-90
2022/11/19 04:12:05;;;;;;;1.85;1.33;;;6.70;96.20;;;;;;5059039;28;20292;-90
2022/11/19 04:14:33;;;;;;;2.00;1.30;;;6.70;96.50;;;;;;5056128;28;20197;-90
2022/11/19 04:17:00;;;;;;;1.30;1.20;;;6.60;97.00;;;;;;5069998;28;20669;-90
2022/11/19 04:19:28;;;;;;;1.30;1.20;;;6.50;97.30;;;;;;5069147;28;20290;-90
2022/11/19 04:21:55;;;;;;;4.10;1.33;;;6.50;97.70;;;;;;5073410;28;20340;-90
2022/11/19 04:24:22;;;;;;;3.58;1.58;;;6.50;98.00;;;;;;5068362;28;20296;-91
2022/11/19 04:26:49;;;;;;;2.35;1.13;;;6.40;98.00;;;;;;5071855;28;20296;-90
2022/11/19 04:29:16;;;;;;;2.38;1.15;;;6.30;98.10;;;;;;5076816;28;20258;-91
2022/11/19 04:31:43;;;;;;;1.42;1.17;;;6.40;98.00;;;;;;5065875;28;20238;-90
2022/11/19 04:34:10;;;;;;;1.63;1.00;;;6.40;98.00;;;;;;5070380;28;20647;-90
2022/11/19 04:36:45;;;;;;;1.73;1.20;;;6.40;97.40;;;;;;5068234;28;20284;-90
2022/11/19 04:39:12;;;;;;;1.80;1.10;;;6.40;98.00;;;;;;5079073;28;20727;-90
2022/11/19 04:41:40;;;;;;;2.08;1.10;;;6.40;97.60;;;;;;5069528;28;20225;-90
2022/11/19 04:44:07;;;;;;;1.52;1.20;;;6.50;97.60;;;;;;5070204;28;20201;-90
2022/11/19 04:46:34;;;;;;;2.85;1.30;;;6.40;98.00;;;;;;5063256;28;20204;-90
2022/11/19 04:49:01;;;;;;;1.20;1.02;;;6.50;98.20;;;;;;5058995;28;20204;-90
2022/11/19 04:51:31;;;;;;;1.25;1.15;;;6.40;98.60;;;;;;5066047;28;20215;-91
2022/11/19 04:53:59;;;;;;;1.40;1.30;;;6.30;98.90;;;;;;5065734;28;20700;-90
2022/11/19 04:56:31;;;;;;;1.27;1.10;;;6.20;99.30;;;;;;5064503;28;20296;-90
2022/11/19 04:58:58;;;;;;;2.97;1.15;;;6.10;99.70;;;;;;5070100;28;20274;-91
2022/11/19 05:01:25;;;;;;;2.60;1.53;;;6.10;99.90;;;;;;5079639;28;20248;-90
2022/11/19 05:03:52;;;;;;;1.52;1.10;;;6.10;99.90;;;;;;5070440;28;20235;-90
2022/11/19 05:06:19;;;;;;;2.85;1.20;;;6.10;99.90;;;;;;5073648;28;20199;-90
2022/11/19 05:08:46;;;;;;;1.00;0.98;;;6.10;99.90;;;;;;5076692;28;20205;-90
2022/11/19 05:11:14;;;;;;;1.52;1.10;;;6.10;99.90;;;;;;5084899;28;20250;-90
2022/11/19 05:13:41;;;;;;;1.15;1.05;;;6.10;99.90;;;;;;5075384;28;20228;-90
2022/11/19 05:16:08;;;;;;;1.75;1.30;;;6.10;99.90;;;;;;5070541;28;20211;-91
2022/11/19 05:18:35;;;;;;;1.13;1.02;;;6.10;99.90;;;;;;5069391;28;20198;-90
2022/11/19 05:21:02;;;;;;;1.50;1.25;;;6.00;99.90;;;;;;5071780;28;20249;-90
2022/11/19 05:23:29;;;;;;;2.13;1.13;;;6.10;99.90;;;;;;5068826;28;20661;-90
2022/11/19 05:25:56;;;;;;;3.40;1.40;;;6.20;99.90;;;;;;5068571;28;20243;-90
2022/11/19 05:28:24;;;;;;;1.83;1.45;;;6.30;99.70;;;;;;5073164;28;21290;-90
2022/11/19 05:30:54;;;;;;;1.20;1.10;;;6.40;99.70;;;;;;5078912;28;20200;-90
2022/11/19 05:33:25;;;;;;;4.32;1.23;;;6.40;99.80;;;;;;5075296;28;20207;-90
2022/11/19 05:35:52;;;;;;;2.05;1.30;;;6.50;99.70;;;;;;5067706;28;20210;-90
2022/11/19 05:38:19;;;;;;;2.63;1.10;;;6.40;99.90;;;;;;5071947;28;20641;-90
2022/11/19 05:40:46;;;;;;;1.20;1.10;;;6.20;99.90;;;;;;5070531;28;20223;-90
2022/11/19 05:43:13;;;;;;;1.98;1.25;;;6.20;99.90;;;;;;5073026;28;20205;-90
2022/11/19 05:45:41;;;;;;;1.45;1.20;;;6.10;99.90;;;;;;5069227;28;20204;-90
2022/11/19 05:48:08;;;;;;;1.67;1.27;;;6.10;99.90;;;;;;5064434;28;20547;-90
2022/11/19 05:50:35;;;;;;;1.05;1.02;;;6.20;99.90;;;;;;5071349;28;20297;-90
2022/11/19 05:53:03;;;;;;;1.48;1.38;;;6.20;99.90;;;;;;5067851;28;20225;-90
2022/11/19 05:55:31;;;;;;;2.07;1.40;;;6.30;99.90;;;;;;5062873;28;20557;-90
2022/11/19 05:57:58;;;;;;;4.55;1.67;;;6.30;99.90;;;;;;5066250;28;20201;-90
2022/11/19 06:00:25;;;;;;;3.28;1.40;;;6.30;99.90;;;;;;5072866;28;20224;-89
2022/11/19 06:02:53;;;;;;;2.58;1.38;;;6.30;99.90;;;;;;5067229;28;20289;-89
2022/11/19 06:05:25;;;;;;;1.88;1.35;;;6.30;99.90;;;;;;5063514;28;20206;-90
2022/11/19 06:07:52;;;;;;;2.17;1.58;;;6.30;99.90;;;;;;5072746;28;20244;-90
2022/11/19 06:10:19;;;;;;;1.50;1.40;;;6.20;99.90;;;;;;5070058;28;20669;-91
2022/11/19 06:12:46;;;;;;;2.83;1.40;;;6.20;99.90;;;;;;5071425;28;20204;-91
2022/11/19 06:15:14;;;;;;;2.45;1.50;;;6.30;99.90;;;;;;5072548;28;20197;-90
2022/11/19 06:17:41;;;;;;;2.67;1.20;;;6.20;99.90;;;;;;5065560;28;20292;-90
2022/11/19 06:20:10;;;;;;;1.40;1.30;;;6.20;99.90;;;;;;5067712;28;20343;-90
2022/11/19 06:22:38;;;;;;;3.40;1.30;;;6.10;99.90;;;;;;5065923;28;20212;-90
2022/11/19 06:25:06;;;;;;;2.80;1.25;;;6.10;99.90;;;;;;5075906;28;20704;-91
2022/11/19 06:27:34;;;;;;;2.40;1.50;;;6.10;99.90;;;;;;5068005;28;20205;-90
2022/11/19 06:30:01;;;;;;;3.40;1.30;;;6.20;99.90;;;;;;5074305;28;20283;-90
2022/11/19 06:32:28;;;;;;;1.45;1.17;;;6.30;99.90;;;;;;5068690;28;20205;-90
2022/11/19 06:34:55;;;;;;;1.40;1.30;;;6.30;99.90;;;;;;5069010;28;20247;-91
2022/11/19 06:37:23;;;;;;;2.67;1.30;;;6.20;99.90;;;;;;5075710;28;20280;-90
2022/11/19 06:39:50;;;;;;;2.40;1.45;;;6.20;99.90;;;;;;5070201;28;20195;-90
2022/11/19 06:45:01;;;;;;;1.80;1.40;;;6.10;99.90;;;;;;5067689;28;20208;-90
2022/11/19 06:47:30;;;;;;;1.40;1.30;;;6.10;99.90;;;;;;5068303;28;20607;-90
2022/11/19 06:49:57;;;;;;;1.48;1.23;;;6.20;99.90;;;;;;5070515;28;20193;-90
2022/11/19 06:52:26;;;;;;;1.40;1.30;;;6.20;99.90;;;;;;5069261;28;20215;-90
2022/11/19 06:54:53;;;;;;;1.88;1.10;;;6.30;99.90;;;;;;5056833;28;20219;-91
2022/11/19 06:57:20;;;;;;;1.58;1.27;;;6.30;99.90;;;;;;5075254;28;20721;-90
2022/11/19 06:59:49;;;;;;;2.28;1.42;;;6.30;99.90;;;;;;5073826;28;20254;-90
2022/11/19 07:02:17;;;;;;;1.48;1.15;;;6.30;99.90;;;;;;5077752;28;20220;-90
2022/11/19 07:04:43;;;;;;;1.20;1.10;;;6.30;99.90;;;;;;5066640;28;20205;-90
2022/11/19 07:07:10;;;;;;;1.40;1.27;;;6.40;99.90;;;;;;5076435;28;20198;-91
2022/11/19 07:09:41;;;;;;;2.92;1.27;;;6.30;99.90;;;;;;5063260;28;20208;-90
2022/11/19 07:12:08;;;;;;;2.05;1.27;;;6.50;99.90;;;;;;5071165;28;20296;-89
2022/11/19 07:14:37;;;;;;;1.30;1.10;;;6.50;99.90;;;;;;5069972;28;20208;-90
2022/11/19 07:17:05;;;;;;;1.25;1.10;;;6.60;99.90;;;;;;5066682;28;20259;-90
2022/11/19 07:19:32;;;;;;;1.40;1.23;;;6.60;99.60;;;;;;5062732;28;20213;-92
2022/11/19 07:22:01;;;;;;;1.50;1.27;;;6.70;99.90;;;;;;5067061;28;20306;-90
2022/11/19 07:24:28;;;;;;;1.15;1.05;;;6.70;99.70;;;;;;5066071;28;20213;-91
2022/11/19 07:26:56;;;;;;;1.23;0.93;;;6.80;99.50;;;;;;5068567;28;20215;-88
2022/11/19 07:29:24;;;;;;;1.35;1.10;;;6.80;99.40;;;;;;5057076;28;20262;-88
2022/11/19 07:31:52;;;;;;;3.38;2.00;;;6.90;99.30;;;;;;5057567;28;20297;-88
2022/11/19 07:34:19;;;;;;;1.55;1.10;;;7.00;99.40;;;;;;5059116;28;20198;-89
2022/11/19 07:36:47;;;;;;;2.38;1.10;;;7.00;98.90;;;;;;5065347;28;20250;-88
2022/11/19 07:39:14;;;;;;;1.27;1.20;;;7.10;99.10;;;;;;5069475;28;20284;-90
2022/11/19 07:44:27;;;;;;;1.83;1.25;;;7.20;98.20;;;;;;5074078;28;20207;-89
2022/11/19 07:46:55;;;;;;;1.30;1.17;;;7.10;98.10;;;;;;5063925;28;20251;-90
2022/11/19 07:49:23;;;;;;;1.27;1.17;;;7.30;98.20;;;;;;5067498;28;20340;-89
2022/11/19 07:51:51;;;;;;;1.20;1.00;;;7.30;98.10;;;;;;5059920;28;20574;-89
2022/11/19 07:54:19;;;;;;;1.52;1.33;;;7.40;97.80;;;;;;5059598;28;20221;-89
2022/11/19 07:56:46;;;;;;;1.27;1.15;;;7.40;97.50;;;;;;5064953;28;20300;-89
2022/11/19 07:59:13;;;;;;;1.40;1.30;;;7.30;97.50;;;;;;5061294;28;20201;-89
2022/11/19 08:01:42;;;;;;;1.35;1.23;;;7.30;97.80;;;;;;5064891;28;20228;-90
2022/11/19 08:04:09;;;;;;;1.50;1.40;;;7.30;98.20;;;;;;5059326;28;20200;-90
2022/11/19 08:06:38;;;;;;;1.35;1.25;;;7.30;97.60;;;;;;5060596;28;20241;-94
2022/11/19 08:09:05;;;;;;;1.50;1.35;;;7.20;97.60;;;;;;5059503;28;20289;-90
2022/11/19 08:11:32;;;;;;;1.55;1.40;;;7.30;97.90;;;;;;5068185;28;20204;-89
2022/11/19 08:14:01;;;;;;;1.77;1.50;;;7.20;98.10;;;;;;5063622;28;20193;-89
2022/11/19 08:19:16;;;;;;;2.25;1.52;;;7.20;97.80;;;;;;5063092;28;20246;-89
2022/11/19 08:21:45;;;;;;;1.67;1.30;;;7.20;97.80;;;;;;5066337;28;20221;-91
2022/11/19 08:24:13;;;;;;;1.40;1.30;;;7.40;97.40;;;;;;5064647;28;20696;-91
2022/11/19 08:26:40;;;;;;;1.60;1.50;;;7.60;97.10;;;;;;5066643;28;20288;-90
2022/11/19 08:29:07;;;;;;;1.73;1.60;;;7.90;97.20;;;;;;5064080;28;20216;-90
2022/11/19 08:31:34;;;;;;;1.30;1.20;;;8.40;95.80;;;;;;5061870;28;20228;-89
2022/11/19 08:34:02;;;;;;;1.13;1.02;;;8.60;95.50;;;;;;5067657;28;20287;-90
2022/11/19 08:36:30;;;;;;;1.30;1.20;;;8.90;93.50;;;;;;5065337;28;20214;-90
2022/11/19 08:38:58;;;;;;;1.25;1.00;;;9.00;93.50;;;;;;5069866;28;20197;-90
2022/11/19 08:44:09;;;;;;;1.80;1.05;;;9.50;90.90;;;;;;5069302;28;20262;-94
2022/11/19 08:46:37;;;;;;;1.00;1.00;;;9.80;90.20;;;;;;5064719;28;20404;-91
2022/11/19 08:49:14;;;;;;;1.17;1.08;;;10.20;90.30;;;;;;5064747;28;20757;-91
2022/11/19 08:51:42;;;;;;;1.42;1.20;;;10.90;85.10;;;;;;5058726;28;20213;-90
2022/11/19 08:54:09;;;;;;;1.00;1.00;;;11.40;79.30;;;;;;5054458;28;20427;-91
2022/11/19 08:56:36;;;;;;;2.03;1.20;;;12.20;66.90;;;;;;5060923;28;20317;-91
2022/11/19 08:59:03;;;;;;;1.75;1.20;;;12.20;67.10;;;;;;5062886;28;20207;-91
2022/11/19 09:01:31;;;;;;;1.00;1.00;;;12.10;60.90;;;;;;5070209;28;20411;-90
2022/11/19 09:03:57;;;;;;;0.85;0.85;;;11.70;65.70;;;;;;5056630;28;20194;-90
2022/11/19 09:06:27;;;;;;;1.20;1.10;;;11.50;67.60;;;;;;5059589;28;20198;-91
2022/11/19 09:08:58;;;;;;;1.52;1.00;;;11.30;66.90;;;;;;5062460;28;20237;-92
2022/11/19 09:14:49;;;;;;;1.10;1.00;;;10.70;76.70;;;;;;5065795;28;20235;-91
2022/11/19 09:17:19;;;;;;;2.50;1.10;;;10.30;80.20;;;;;;5065526;28;20212;-91
2022/11/19 09:19:46;;;;;;;2.53;1.50;;;10.20;83.50;;;;;;5066193;28;20292;-91
2022/11/19 09:22:13;;;;;;;1.40;1.20;;;10.30;80.30;;;;;;5064085;28;20217;-91
2022/11/19 09:24:42;;;;;;;1.00;1.00;;;10.40;80.40;;;;;;5066244;28;20189;-91
2022/11/19 09:27:25;;;;;;;1.27;1.13;;;10.30;78.20;;;;;;5060868;28;20290;-90
2022/11/19 09:29:52;;;;;;;1.10;1.00;;;10.10;81.80;;;;;;5064304;28;20279;-91
2022/11/19 09:32:19;;;;;;;0.90;0.90;;;10.00;78.60;;;;;;5065519;28;20200;-90
2022/11/19 09:34:46;;;;;;;1.92;1.42;;;9.80;81.30;;;;;;5066413;28;20208;-91
2022/11/19 09:37:13;;;;;;;1.13;1.00;;;9.60;83.20;;;;;;5063945;28;20717;-91
2022/11/19 09:39:41;;;;;;;1.40;1.30;;;9.50;83.30;;;;;;5067205;28;20197;-90
2022/11/19 09:42:16;;;;;;;1.98;1.13;;;9.40;83.90;;;;;;5062755;28;20305;-90
2022/11/19 09:45:15;;;;;;;1.00;1.00;;;9.40;83.30;;;;;;5061779;28;20223;-88
2022/11/19 09:48:02;;;;;;;1.25;1.05;;;9.50;84.20;;;;;;5061914;28;20654;-88
2022/11/19 09:50:33;;;;;;;1.20;1.10;;;9.60;85.60;;;;;;5057426;28;20721;-88
2022/11/19 09:53:06;;;;;;;1.77;0.90;;;9.80;82.40;;;;;;5059874;28;20217;-89
2022/11/19 09:55:37;;;;;;;1.35;1.17;;;9.80;80.70;;;;;;5059752;28;20205;-89
2022/11/19 09:58:18;;;;;;;1.67;1.13;;;9.80;82.20;;;;;;5064253;28;20198;-87
2022/11/19 10:00:45;;;;;;;1.33;1.13;;;9.70;80.00;;;;;;5064165;28;20287;-88
2022/11/19 10:03:22;;;;;;;1.27;1.10;;;9.60;80.20;;;;;;5065045;28;20225;-88
2022/11/19 10:06:10;;;;;;;1.48;1.25;;;9.60;80.70;;;;;;5066869;28;20696;-89
2022/11/19 10:08:52;;;;;;;1.65;1.05;;;9.50;81.80;;;;;;5065564;28;20201;-88
2022/11/19 10:11:33;;;;;;;1.67;1.27;;;9.40;83.20;;;;;;5068004;28;20206;-88
2022/11/19 10:14:17;;;;;;;1.73;1.23;;;9.20;85.90;;;;;;5064720;28;20241;-88
2022/11/19 10:16:57;;;;;;;1.33;1.23;;;9.10;88.10;;;;;;5059426;28;20198;-88
2022/11/19 10:19:40;;;;;;;3.08;1.98;;;9.20;85.90;;;;;;5073123;28;20542;-88
2022/11/19 10:22:14;;;;;;;1.35;1.23;;;9.30;84.50;;;;;;5062295;28;20220;-88
2022/11/19 10:24:44;;;;;;;1.23;1.10;;;9.40;86.80;;;;;;5061724;28;20244;-88
2022/11/19 10:27:23;;;;;;;3.20;1.85;;;9.30;83.20;;;;;;5077263;28;20193;-88
2022/11/19 10:29:59;;;;;;;1.90;1.58;;;9.20;87.40;;;;;;5058993;28;20288;-88
2022/11/19 10:32:32;;;;;;;1.20;1.10;;;9.10;86.10;;;;;;5071330;28;20851;-88
2022/11/19 10:35:14;;;;;;;3.45;1.35;;;9.00;86.30;;;;;;5080392;28;20287;-88
2022/11/19 10:37:51;;;;;;;1.60;1.13;;;9.00;88.70;;;;;;5073509;28;20720;-88
2022/11/19 10:40:22;;;;;;;1.38;1.20;;;8.90;88.10;;;;;;5075939;28;20228;-88
2022/11/19 10:42:54;;;;;;;1.48;1.38;;;9.00;88.50;;;;;;5061085;28;20348;-88
2022/11/19 10:45:23;;;;;;;1.30;1.10;;;9.00;90.30;;;;;;5068601;28;20284;-88
2022/11/19 10:47:57;;;;;;;4.35;2.78;;;9.20;90.50;;;;;;5074116;28;20304;-88
2022/11/19 10:50:25;;;;;;;2.97;2.47;;;9.30;87.20;;;;;;5071587;28;20203;-88
2022/11/19 10:52:54;;;;;;;2.47;1.40;;;9.30;84.90;;;;;;5064386;28;20203;-88
2022/11/19 10:55:26;;;;;;;2.60;1.83;;;9.30;86.00;;;;;;5063332;28;20693;-88
2022/11/19 10:58:07;;;;;;;1.02;1.00;;;9.40;83.30;;;;;;5067526;28;20207;-88
2022/11/19 11:00:35;;;;;;;2.53;1.38;;;9.30;84.30;;;;;;5067124;28;20200;-88
2022/11/19 11:03:20;;;;;;;1.50;1.20;;;9.30;83.90;;;;;;5067051;28;20655;-88
2022/11/19 11:06:00;;;;;;;1.08;1.00;;;9.40;81.60;;;;;;5073099;28;20232;-88
2022/11/19 11:08:29;;;;;;;2.45;1.00;;;9.40;81.10;;;;;;5066178;28;20323;-88
2022/11/19 11:10:56;;;;;;;1.00;1.00;;;9.40;80.20;;;;;;5068463;28;20237;-88
2022/11/19 11:16:18;;;;;;;1.30;1.20;;;9.40;81.50;;;;;;5064049;28;20789;-88
2022/11/19 11:18:46;;;;;;;2.95;1.35;;;9.50;84.30;;;;;;5065334;28;20437;-88
2022/11/19 11:21:35;;;;;;;2.13;1.77;;;9.60;84.90;;;;;;5056970;28;20699;-88
2022/11/19 11:24:03;;;;;;;1.98;1.42;;;9.80;82.70;;;;;;5065698;28;20208;-86
2022/11/19 11:26:33;;;;;;;1.75;1.30;;;9.90;83.20;;;;;;5075997;28;20732;-89
2022/11/19 11:29:07;;;;;;;3.90;1.50;;;10.00;81.60;;;;;;5065727;28;20678;-91
2022/11/19 11:31:39;;;;;;;1.50;1.40;;;10.00;77.40;;;;;;5068584;28;20290;-87
2022/11/19 11:34:14;;;;;;;1.48;1.30;;;10.00;77.90;;;;;;5065023;28;20617;-87
2022/11/19 11:36:42;;;;;;;1.55;1.20;;;10.00;79.00;;;;;;5067836;28;20542;-86
2022/11/19 11:39:25;;;;;;;0.98;0.93;;;10.00;77.50;;;;;;5062642;28;20674;-92
2022/11/19 11:41:57;;;;;;;1.35;1.20;;;10.00;77.50;;;;;;5078848;28;20545;-90
2022/11/19 11:44:27;;;;;;;1.63;1.50;;;10.00;78.70;;;;;;5067511;28;20288;-89
2022/11/19 11:46:56;;;;;;;1.15;1.05;;;10.10;78.40;;;;;;5076469;28;20224;-90
2022/11/19 11:49:31;;;;;;;3.88;1.40;;;10.30;79.60;;;;;;5072649;28;20677;-85
2022/11/19 11:52:21;;;;;;;1.88;1.35;;;10.40;75.40;;;;;;5068310;28;20215;-85
2022/11/19 11:55:38;;;;;;;2.45;1.20;;;10.20;75.80;;;;;;5070074;28;20223;-85
2022/11/19 11:58:26;;;;;;;2.05;1.30;;;9.90;78.30;;;;;;5062197;28;20209;-84
2022/11/19 12:01:09;;;;;;;1.38;1.25;;;9.90;80.40;;;;;;5068244;28;20202;-83
2022/11/19 12:03:36;;;;;;;1.55;1.38;;;9.90;81.60;;;;;;5066995;28;20260;-84
2022/11/19 12:06:11;;;;;;;2.38;1.27;;;9.50;82.40;;;;;;5066980;28;20208;-83
2022/11/19 12:08:48;;;;;;;3.17;1.30;;;9.30;83.90;;;;;;5064401;28;20283;-82
2022/11/19 12:11:22;;;;;;;3.88;1.48;;;9.10;86.00;;;;;;5057451;28;20296;-85
2022/11/19 12:13:58;;;;;;;1.80;1.25;;;9.10;87.80;;;;;;5070263;28;20199;-83
2022/11/19 12:16:46;;;;;;;1.50;1.13;;;9.00;90.50;;;;;;5067033;28;20276;-81
2022/11/19 12:19:33;;;;;;;1.55;1.45;;;9.00;90.50;;;;;;5071606;28;20655;-82
2022/11/19 12:22:08;;;;;;;3.92;1.52;;;9.10;88.80;;;;;;5068421;28;20617;-83
2022/11/19 12:25:04;;;;;;;2.65;1.42;;;9.00;89.20;;;;;;5068759;28;20209;-84
2022/11/19 12:27:38;;;;;;;2.53;2.08;;;9.00;90.50;;;;;;5062128;28;20201;-87
2022/11/19 12:30:11;;;;;;;1.35;1.20;;;9.10;90.50;;;;;;5066149;28;20201;-84
2022/11/19 12:33:04;;;;;;;1.38;1.15;;;9.20;86.70;;;;;;5063722;28;20209;-85
2022/11/19 12:35:48;;;;;;;1.33;1.08;;;9.20;83.60;;;;;;5058681;28;20288;-86
2022/11/19 12:38:28;;;;;;;1.95;1.25;;;9.00;84.70;;;;;;5062596;28;20266;-83
2022/11/19 12:41:05;;;;;;;1.80;1.20;;;8.90;84.80;;;;;;5068514;28;20201;-83
2022/11/19 12:43:51;;;;;;;1.40;1.30;;;8.80;85.60;;;;;;5068525;28;20409;-85
2022/11/19 12:46:27;;;;;;;1.23;1.13;;;8.60;86.80;;;;;;5063664;28;20629;-83
2022/11/19 12:49:32;;;;;;;1.70;1.10;;;8.50;88.00;;;;;;5072996;28;20705;-83
2022/11/19 12:52:30;;;;;;;2.20;1.25;;;8.60;88.90;;;;;;5008061;28;20297;-85
2022/11/19 12:55:09;;;;;;;4.25;1.20;;;8.70;89.30;;;;;;5000711;28;20631;-84
2022/11/19 12:57:47;;;;;;;2.25;1.35;;;8.90;87.80;;;;;;5004197;28;20203;-83
2022/11/19 13:00:17;;;;;;;3.28;1.45;;;9.20;86.80;;;;;;5002747;28;20751;-83
2022/11/19 13:02:54;;;;;;;1.65;1.40;;;9.30;85.20;;;;;;4998694;28;20221;-81
2022/11/19 13:05:37;;;;;;;2.38;1.20;;;9.30;83.10;;;;;;5001799;28;20705;-83
2022/11/19 13:08:11;;;;;;;3.60;1.40;;;9.20;82.80;;;;;;5000386;28;20278;-84
2022/11/19 13:10:41;;;;;;;2.50;1.40;;;9.10;81.90;;;;;;4998245;28;20734;-82
2022/11/19 13:13:14;;;;;;;1.90;1.10;;;9.00;83.80;;;;;;4996634;28;20210;-81
2022/11/19 13:15:47;;;;;;;1.77;0.98;;;9.10;84.10;;;;;;5000788;28;20219;-84
2022/11/19 13:19:01;;;;;;;1.58;1.23;;;9.10;84.80;;;;;;5008431;28;20751;-84
2022/11/19 13:25:18;;;;;;;3.95;1.40;;;9.30;85.90;;;;;;5011023;28;20264;-84
2022/11/19 13:27:47;;;;;;;2.88;1.30;;;9.40;84.30;;;;;;5034961;28;20288;-81
2022/11/19 13:30:18;;;;;;;2.97;1.60;;;9.30;84.40;;;;;;5066017;28;20190;-82
2022/11/19 13:33:04;;;;;;;1.92;1.55;;;9.20;85.00;;;;;;5065210;28;20614;-82
2022/11/19 13:35:37;;;;;;;2.45;1.40;;;9.10;86.00;;;;;;5066296;28;20206;-81
2022/11/19 13:38:23;;;;;;;2.20;1.35;;;9.00;86.40;;;;;;5070656;28;20201;-82
2022/11/19 13:41:04;;;;;;;1.58;1.40;;;8.90;83.30;;;;;;5066877;28;20339;-81
2022/11/19 13:46:21;;;;;;;1.50;1.08;;;8.90;82.20;;;;;;5070212;28;20247;-82
2022/11/19 13:48:55;;;;;;;1.60;1.30;;;8.70;82.80;;;;;;5068516;28;20250;-88
2022/11/19 13:51:44;;;;;;;1.67;1.10;;;8.60;84.00;;;;;;5072024;28;20288;-84
2022/11/19 13:54:23;;;;;;;1.35;1.05;;;8.40;86.20;;;;;;5079024;28;20309;-83
2022/11/19 13:56:54;;;;;;;1.73;1.20;;;8.20;87.40;;;;;;5073586;28;20283;-84
2022/11/19 13:59:30;;;;;;;1.60;1.40;;;8.20;89.50;;;;;;5057080;28;20619;-83